createdAt,value
2019-03-23T13:23:31.625Z,97033.16
2019-03-23T13:26:00.030Z,97036.72
2019-03-23T13:28:28.401Z,97032.33
2019-03-23T13:30:57.018Z,97032.33
2019-03-23T13:33:25.362Z,97029.03
2019-03-23T13:35:53.751Z,97028.20
2019-03-23T13:38:22.451Z,97021.91
2019-03-23T13:40:50.840Z,97017.80
2019-03-23T13:43:19.215Z,97017.80
2019-03-23T13:45:47.557Z,97013.69
2019-03-23T13:48:15.941Z,97015.31
2019-03-23T13:50:44.292Z,97018.06
2019-03-23T13:53:12.660Z,97014.77
2019-03-23T13:55:41.041Z,97009.83
2019-03-23T13:58:11.115Z,97004.35
2019-03-23T14:00:39.486Z,97005.73
2019-03-23T14:03:08.489Z,97000.78
2019-03-23T14:05:37.476Z,96995.59
2019-03-23T14:08:06.028Z,96996.39
2019-03-23T14:10:34.479Z,96993.11
2019-03-23T14:13:02.823Z,96998.34
2019-03-23T14:15:33.112Z,96990.93
2019-03-23T14:18:01.428Z,96998.03
2019-03-23T14:20:29.814Z,96996.92
2019-03-23T14:23:02.561Z,96992.01
2019-03-23T14:25:28.407Z,96991.95
2019-03-23T14:27:56.777Z,96996.55
2019-03-23T14:30:25.127Z,96990.80
2019-03-23T14:32:53.512Z,96993.06
2019-03-23T14:35:21.891Z,96994.64
2019-03-23T14:37:50.288Z,96991.66
2019-03-23T14:40:18.611Z,97002.31
2019-03-23T14:42:47.051Z,96995.47
2019-03-23T14:45:15.755Z,96994.41
2019-03-23T14:47:44.103Z,96993.39
2019-03-23T14:50:12.651Z,96992.59
2019-03-23T14:52:41.055Z,96992.02
2019-03-23T14:55:09.480Z,96984.08
2019-03-23T14:57:37.850Z,96986.83
2019-03-23T15:00:10.722Z,96978.58
2019-03-23T15:02:39.077Z,96981.62
2019-03-23T15:05:07.907Z,96986.83
2019-03-23T15:07:36.350Z,96976.67
2019-03-23T15:10:08.022Z,96981.33
2019-03-23T15:12:36.406Z,96978.88
2019-03-23T15:15:06.786Z,96974.73
2019-03-23T15:17:35.177Z,96977.14
2019-03-23T15:20:04.577Z,96976.30
2019-03-23T15:22:32.918Z,96979.05
2019-03-23T15:25:01.294Z,96979.06
2019-03-23T15:27:29.643Z,96977.15
2019-03-23T15:29:57.982Z,96976.95
2019-03-23T15:32:26.327Z,96977.23
2019-03-23T15:34:54.659Z,96973.95
2019-03-23T15:37:22.999Z,96979.28
2019-03-23T15:39:51.349Z,96974.17
2019-03-23T15:42:24.655Z,96972.98
2019-03-23T15:44:49.777Z,96978.53
2019-03-23T15:47:18.144Z,96969.79
2019-03-23T15:49:46.511Z,96966.47
2019-03-23T15:52:14.859Z,96967.87
2019-03-23T15:54:43.227Z,96972.89
2019-03-23T15:57:11.575Z,96964.99
2019-03-23T15:59:39.909Z,96971.56
2019-03-23T16:02:08.285Z,96965.78
2019-03-23T16:04:36.664Z,96974.42
2019-03-23T16:07:05.557Z,96975.00
2019-03-23T16:09:33.919Z,96976.42
2019-03-23T16:12:02.293Z,96979.17
2019-03-23T16:14:30.658Z,96983.27
2019-03-23T16:16:59.040Z,96985.19
2019-03-23T16:19:27.419Z,96980.16
2019-03-23T16:21:55.788Z,96985.13
2019-03-23T16:24:24.164Z,96991.94
2019-03-23T16:26:52.543Z,96990.52
2019-03-23T16:29:20.937Z,96993.91
2019-03-23T16:31:49.309Z,96994.62
2019-03-23T16:34:17.655Z,96997.76
2019-03-23T16:36:46.059Z,97003.27
2019-03-23T16:39:14.411Z,97004.09
2019-03-23T16:41:42.777Z,97001.17
2019-03-23T16:44:11.175Z,97003.67
2019-03-23T16:46:39.601Z,97011.41
2019-03-23T16:49:07.965Z,97011.22
2019-03-23T16:51:36.708Z,97021.46
2019-03-23T16:54:05.126Z,97022.45
2019-03-23T16:56:33.545Z,97021.74
2019-03-23T16:59:02.039Z,97023.87
2019-03-23T17:01:30.443Z,97020.25
2019-03-23T17:03:58.805Z,97023.80
2019-03-23T17:06:27.444Z,97022.30
2019-03-23T17:08:56.688Z,97020.42
2019-03-23T17:11:25.225Z,97034.36
2019-03-23T17:13:53.614Z,97028.64
2019-03-23T17:16:22.004Z,97029.41
2019-03-23T17:18:50.368Z,97024.44
2019-03-23T17:21:18.759Z,97026.56
2019-03-23T17:23:47.143Z,97031.35
2019-03-23T17:26:15.518Z,97031.28
2019-03-23T17:28:43.874Z,97033.70
2019-03-23T17:31:12.241Z,97028.92
2019-03-23T17:33:40.591Z,97038.47
2019-03-23T17:36:08.950Z,97034.58
2019-03-23T17:38:37.321Z,97032.55
2019-03-23T17:41:05.703Z,97034.54
2019-03-23T17:43:34.094Z,97037.88
2019-03-23T17:46:02.460Z,97037.53
2019-03-23T17:48:31.022Z,97041.73
2019-03-23T17:50:59.360Z,97041.55
2019-03-23T17:53:27.757Z,97049.34
2019-03-23T17:55:56.129Z,97044.44
2019-03-23T17:58:24.509Z,97051.36
2019-03-23T18:00:52.844Z,97051.36
2019-03-23T18:03:21.214Z,97056.43
2019-03-23T18:05:49.585Z,97051.53
2019-03-23T18:08:18.006Z,97057.39
2019-03-23T18:10:46.359Z,97064.17
2019-03-23T18:13:16.768Z,97063.27
2019-03-23T18:15:44.837Z,97065.53
2019-03-23T18:18:13.273Z,97064.92
2019-03-23T18:20:41.606Z,97072.83
2019-03-23T18:23:09.977Z,97075.63
2019-03-23T18:25:38.357Z,97073.66
2019-03-23T18:28:06.725Z,97077.73
2019-03-23T18:30:37.599Z,97078.25
2019-03-23T18:33:06.095Z,97070.81
2019-03-23T18:35:34.528Z,97072.76
2019-03-23T18:38:03.577Z,97075.45
2019-03-23T18:40:33.387Z,97079.58
2019-03-23T18:43:01.868Z,97084.91
2019-03-23T18:45:30.248Z,97079.49
2019-03-23T18:47:58.581Z,97080.33
2019-03-23T18:50:27.004Z,97085.52
2019-03-23T18:52:55.378Z,97082.20
2019-03-23T18:55:23.741Z,97086.27
2019-03-23T18:57:52.199Z,97087.40
2019-03-23T19:00:42.875Z,97084.91
2019-03-23T19:03:11.377Z,97084.73
2019-03-23T19:05:39.821Z,97091.88
2019-03-23T19:08:08.170Z,97090.95
2019-03-23T19:10:36.599Z,97094.48
2019-03-23T19:13:05.178Z,97086.36
2019-03-23T19:15:33.664Z,97095.84
2019-03-23T19:18:02.075Z,97092.05
2019-03-23T19:20:30.542Z,97094.70
2019-03-23T19:22:58.923Z,97093.62
2019-03-23T19:25:27.278Z,97090.21
2019-03-23T19:27:55.681Z,97095.16
2019-03-23T19:30:24.095Z,97101.09
2019-03-23T19:32:52.550Z,97108.33
2019-03-23T19:35:20.932Z,97108.53
2019-03-23T19:37:49.394Z,97106.72
2019-03-23T19:40:17.768Z,97114.13
2019-03-23T19:42:46.253Z,97115.49
2019-03-23T19:45:14.689Z,97112.01
2019-03-23T19:47:43.048Z,97118.03
2019-03-23T19:50:11.677Z,97120.48
2019-03-23T19:52:40.046Z,97120.58
2019-03-23T19:55:09.156Z,97122.76
2019-03-23T19:57:37.523Z,97122.56
2019-03-23T20:00:08.155Z,97132.30
2019-03-23T20:02:36.553Z,97131.20
2019-03-23T20:05:06.295Z,97130.36
2019-03-23T20:07:34.629Z,97122.08
2019-03-23T20:10:03.541Z,97127.42
2019-03-23T20:12:31.913Z,97128.88
2019-03-23T20:15:00.377Z,97128.70
2019-03-23T20:17:28.763Z,97129.64
2019-03-23T20:19:57.096Z,97128.22
2019-03-23T20:22:25.507Z,97130.58
2019-03-23T20:24:53.883Z,97130.23
2019-03-23T20:27:22.237Z,97129.75
2019-03-23T20:29:50.609Z,97128.74
2019-03-23T20:32:18.985Z,97122.85
2019-03-23T20:34:47.352Z,97127.42
2019-03-23T20:37:15.706Z,97125.30
2019-03-23T20:39:44.105Z,97127.70
2019-03-23T20:42:12.470Z,97130.02
2019-03-23T20:44:40.828Z,97124.83
2019-03-23T20:47:09.402Z,97132.50
2019-03-23T20:49:37.830Z,97131.48
2019-03-23T20:52:06.197Z,97126.30
2019-03-23T20:54:34.663Z,97122.45
2019-03-23T20:57:03.028Z,97120.91
2019-03-23T20:59:31.834Z,97106.82
2019-03-23T21:02:00.679Z,97108.36
2019-03-23T21:04:29.044Z,97106.07
2019-03-23T21:06:57.441Z,97103.80
2019-03-23T21:09:25.789Z,97101.50
2019-03-23T21:11:54.189Z,97101.81
2019-03-23T21:14:22.597Z,97091.84
2019-03-23T21:16:50.971Z,97089.55
2019-03-23T21:19:19.794Z,97099.26
2019-03-23T21:21:48.182Z,97097.47
2019-03-23T21:24:16.723Z,97091.98
2019-03-23T21:26:45.090Z,97094.36
2019-03-23T21:29:13.488Z,97093.95
2019-03-23T21:31:41.875Z,97093.12
2019-03-23T21:34:10.322Z,97086.06
2019-03-23T21:36:38.700Z,97083.05
2019-03-23T21:39:07.337Z,97085.12
2019-03-23T21:41:35.929Z,97079.02
2019-03-23T21:44:04.437Z,97079.80
2019-03-23T21:46:32.876Z,97070.89
2019-03-23T21:49:01.227Z,97067.05
2019-03-23T21:51:29.577Z,97058.77
2019-03-23T21:53:57.948Z,97065.20
2019-03-23T21:56:26.324Z,97059.81
2019-03-23T21:58:54.714Z,97044.15
2019-03-23T22:01:23.096Z,97056.92
2019-03-23T22:03:51.448Z,97055.25
2019-03-23T22:06:19.800Z,97053.47
2019-03-23T22:08:48.171Z,97055.63
2019-03-23T22:11:16.547Z,97052.03
2019-03-23T22:13:44.910Z,97057.73
2019-03-23T22:16:13.321Z,97054.00
2019-03-23T22:18:41.640Z,97058.06
2019-03-23T22:21:10.024Z,97049.85
2019-03-23T22:23:38.630Z,97045.50
2019-03-23T22:26:06.967Z,97046.86
2019-03-23T22:28:35.404Z,97045.70
2019-03-23T22:31:03.727Z,97039.78
2019-03-23T22:33:32.113Z,97041.35
2019-03-23T22:36:00.481Z,97025.78
2019-03-23T22:38:28.824Z,97031.71
2019-03-23T22:40:57.159Z,97029.52
2019-03-23T22:43:25.520Z,97023.70
2019-03-23T22:45:53.876Z,97022.56
2019-03-23T22:48:22.233Z,97018.95
2019-03-23T22:50:50.700Z,97021.65
2019-03-23T22:53:19.077Z,97024.34
2019-03-23T22:55:47.532Z,97021.65
2019-03-23T22:58:15.996Z,97025.49
2019-03-23T23:00:45.911Z,97013.87
2019-03-23T23:03:14.363Z,97020.62
2019-03-23T23:05:42.806Z,97018.33
2019-03-23T23:08:11.142Z,97011.38
2019-03-23T23:10:39.680Z,97003.27
2019-03-23T23:13:08.109Z,96998.91
2019-03-23T23:15:36.485Z,96992.58
2019-03-23T23:18:04.909Z,96987.70
2019-03-23T23:20:33.255Z,96988.84
2019-03-23T23:23:01.631Z,96991.66
2019-03-23T23:25:29.986Z,96988.22
2019-03-23T23:27:58.364Z,96980.33
2019-03-23T23:30:26.741Z,96985.00
2019-03-23T23:32:55.092Z,96983.66
2019-03-23T23:35:23.518Z,96983.27
2019-03-23T23:37:51.887Z,96981.40
2019-03-23T23:40:20.255Z,96984.49
2019-03-23T23:42:48.643Z,96971.42
2019-03-23T23:45:17.108Z,96980.65
2019-03-23T23:47:45.494Z,96989.31
2019-03-23T23:50:13.946Z,96976.02
2019-03-23T23:52:42.325Z,96971.41
2019-03-23T23:55:10.848Z,96970.80
2019-03-23T23:57:39.197Z,96969.03
